Time;durP1;ratioP1;P1;durP2;ratioP2;P2;SDS_P1;SDS_P2;PMS_P1;PMS_P2;Temp;Humidity;BMP_temperature;BMP_pressure;BME280_temperature;BME280_humidity;BME280_pressure;Samples;Min_cycle;Max_cycle;Signal;HPM_P1;HPM_P2
2021/12/24 00:00:47;;;;;;;52.03;33.53;;;2.70;76.90;;;;;;5034496;28;20112;-69
2021/12/24 00:03:14;;;;;;;53.25;32.55;;;2.70;76.90;;;;;;5035072;28;20458;-66
2021/12/24 00:05:40;;;;;;;54.47;32.83;;;2.80;75.80;;;;;;5051985;28;20028;-70
2021/12/24 00:08:07;;;;;;;54.33;32.50;;;2.70;74.90;;;;;;5034969;28;20454;-72
2021/12/24 00:10:33;;;;;;;54.63;34.13;;;2.70;74.90;;;;;;5052773;28;20370;-70
2021/12/24 00:13:08;;;;;;;54.58;33.33;;;2.80;75.50;;;;;;5050795;28;20025;-71
2021/12/24 00:18:35;;;;;;;51.55;33.03;;;2.90;74.90;;;;;;5051180;28;20023;-71
2021/12/24 00:37:20;;;;;;;54.70;33.47;;;2.80;74.40;;;;;;5050818;28;20090;-65
2021/12/24 00:39:55;;;;;;;58.35;34.95;;;2.70;74.10;;;;;;5050941;28;20029;-66
2021/12/24 00:42:21;;;;;;;56.20;33.55;;;2.60;74.70;;;;;;5051990;28;20048;-70
2021/12/24 00:44:47;;;;;;;54.00;35.25;;;2.70;75.10;;;;;;5050408;28;20058;-65
2021/12/24 00:47:12;;;;;;;55.97;35.05;;;2.70;75.10;;;;;;5034072;28;20045;-63
2021/12/24 00:49:38;;;;;;;56.67;35.92;;;2.80;75.20;;;;;;5050755;28;20029;-68
2021/12/24 00:52:20;;;;;;;56.05;34.25;;;2.90;75.20;;;;;;5033588;28;20078;-72
2021/12/24 00:55:05;;;;;;;62.15;35.70;;;2.90;74.80;;;;;;5051461;28;20055;-69
2021/12/24 00:57:34;;;;;;;54.75;34.90;;;2.90;74.70;;;;;;5020067;28;20032;-68
2021/12/24 01:00:00;;;;;;;59.67;37.08;;;3.00;74.80;;;;;;5050919;28;20013;-62
2021/12/24 01:02:26;;;;;;;57.17;37.13;;;2.90;75.10;;;;;;5030857;28;20075;-72
2021/12/24 01:04:52;;;;;;;58.75;36.10;;;2.90;76.00;;;;;;5050525;28;20098;-64
2021/12/24 01:07:18;;;;;;;56.40;36.58;;;2.90;75.70;;;;;;5033957;28;20116;-63
2021/12/24 01:09:43;;;;;;;62.05;37.15;;;3.00;75.80;;;;;;5050382;28;20021;-70
2021/12/24 01:12:10;;;;;;;61.65;36.80;;;3.10;75.80;;;;;;5033745;28;20050;-67
2021/12/24 01:14:36;;;;;;;54.83;35.38;;;3.10;76.00;;;;;;5033897;28;20079;-68
2021/12/24 01:19:30;;;;;;;52.85;35.55;;;3.40;76.00;;;;;;5055870;28;20025;-68
2021/12/24 01:23:26;;;;;;;54.08;35.13;;;3.40;76.10;;;;;;5037282;28;20021;-69
2021/12/24 01:25:01;;;;;;;50.10;33.42;;;3.50;76.40;;;;;;5037483;28;20480;-67
2021/12/24 01:37:51;;;;;;;50.65;32.67;;;3.70;77.00;;;;;;5055136;28;20603;-66
2021/12/24 01:38:25;;;;;;;49.33;32.10;;;3.90;77.90;;;;;;5055136;28;20036;-67
2021/12/24 01:43:16;;;;;;;46.50;30.17;;;4.10;78.40;;;;;;5055124;28;20025;-67
2021/12/24 01:45:47;;;;;;;48.05;31.08;;;4.20;78.30;;;;;;5054035;28;20033;-70
2021/12/24 01:48:13;;;;;;;46.25;31.80;;;4.30;78.50;;;;;;5055428;28;20033;-65
2021/12/24 01:50:45;;;;;;;48.70;30.67;;;4.20;78.80;;;;;;5037471;28;20032;-68
2021/12/24 01:53:12;;;;;;;48.63;30.93;;;4.30;79.10;;;;;;5055179;28;20029;-65
2021/12/24 01:55:39;;;;;;;47.72;31.08;;;4.40;79.20;;;;;;5054609;28;20306;-63
2021/12/24 01:58:05;;;;;;;47.60;31.60;;;4.50;79.10;;;;;;5036107;28;20025;-69
2021/12/24 02:00:37;;;;;;;48.78;30.73;;;4.60;79.00;;;;;;5054545;28;20025;-66
2021/12/24 02:03:05;;;;;;;46.22;29.52;;;4.60;78.80;;;;;;5036466;28;20110;-65
2021/12/24 02:05:31;;;;;;;46.33;28.80;;;4.70;78.90;;;;;;5036795;28;20112;-65
2021/12/24 02:07:59;;;;;;;42.88;28.60;;;4.70;79.20;;;;;;5035873;28;20108;-65
2021/12/24 02:10:25;;;;;;;41.80;26.13;;;4.90;79.30;;;;;;5054200;28;20025;-66
2021/12/24 02:12:52;;;;;;;38.33;24.33;;;4.90;79.20;;;;;;5053282;28;20021;-69
2021/12/24 02:15:42;;;;;;;34.03;19.77;;;5.00;79.60;;;;;;5053919;28;20470;-68
2021/12/24 02:28:48;;;;;;;15.30;9.60;;;6.10;84.80;;;;;;5053165;28;20098;-66
2021/12/24 02:31:23;;;;;;;13.70;8.93;;;6.40;83.90;;;;;;5036549;28;20408;-68
2021/12/24 02:33:50;;;;;;;15.93;9.38;;;6.60;83.50;;;;;;5053994;28;20117;-66
2021/12/24 02:36:16;;;;;;;14.32;8.82;;;6.70;82.70;;;;;;5054499;28;20028;-65
2021/12/24 02:38:43;;;;;;;15.60;9.13;;;6.90;82.60;;;;;;5054278;28;20025;-69
2021/12/24 02:41:10;;;;;;;12.15;8.63;;;7.00;82.40;;;;;;5036479;28;20025;-68
2021/12/24 02:43:37;;;;;;;12.77;8.30;;;7.10;82.00;;;;;;5054019;28;20381;-66
2021/12/24 02:46:15;;;;;;;15.40;8.38;;;7.20;81.60;;;;;;5053936;28;20244;-66
2021/12/24 02:54:05;;;;;;;10.55;7.55;;;7.60;81.00;;;;;;5053469;28;20107;-65
2021/12/24 02:56:34;;;;;;;11.25;7.22;;;7.70;81.00;;;;;;5054182;28;20530;-66
2021/12/24 02:59:11;;;;;;;11.02;6.88;;;7.80;80.60;;;;;;5053698;28;20060;-66
2021/12/24 03:01:39;;;;;;;10.60;6.95;;;8.00;80.00;;;;;;5037911;28;20029;-66
2021/12/24 03:04:06;;;;;;;12.38;6.85;;;8.10;79.30;;;;;;5053338;28;20057;-68
2021/12/24 03:06:36;;;;;;;11.70;6.70;;;8.20;79.10;;;;;;5035954;28;20032;-66
2021/12/24 03:09:08;;;;;;;11.57;7.22;;;8.20;78.40;;;;;;5035343;28;20021;-72
2021/12/24 03:11:35;;;;;;;11.95;7.53;;;8.30;78.00;;;;;;5053896;28;20025;-70
2021/12/24 03:14:02;;;;;;;12.98;7.20;;;8.40;77.50;;;;;;5053368;28;20032;-67
2021/12/24 03:16:28;;;;;;;10.68;7.07;;;8.50;76.90;;;;;;5035722;28;20129;-68
2021/12/24 03:18:58;;;;;;;10.10;7.35;;;8.50;76.50;;;;;;5053487;28;20025;-70
2021/12/24 03:21:36;;;;;;;11.73;7.15;;;8.60;76.00;;;;;;5053178;28;20036;-70
2021/12/24 03:26:32;;;;;;;13.63;8.63;;;8.70;75.40;;;;;;5053662;28;20036;-68
2021/12/24 03:28:58;;;;;;;11.30;7.57;;;8.70;75.10;;;;;;5052849;28;20128;-67
2021/12/24 03:31:23;;;;;;;12.20;7.95;;;8.70;75.00;;;;;;5053761;28;20474;-69
2021/12/24 03:33:53;;;;;;;10.65;7.22;;;8.70;74.80;;;;;;5053115;28;20112;-69
2021/12/24 03:36:21;;;;;;;15.00;8.60;;;8.70;74.50;;;;;;5053196;28;20029;-71
2021/12/24 03:38:47;;;;;;;12.88;8.15;;;8.70;74.40;;;;;;5053009;28;20048;-67
2021/12/24 03:41:14;;;;;;;13.25;7.88;;;8.70;74.40;;;;;;5052378;28;20036;-67
2021/12/24 03:43:40;;;;;;;12.13;8.02;;;8.80;74.30;;;;;;5052958;28;20025;-70
2021/12/24 03:46:09;;;;;;;14.27;8.60;;;8.80;74.10;;;;;;5034735;28;20025;-67
2021/12/24 03:51:40;;;;;;;12.30;8.25;;;8.90;73.80;;;;;;5053091;28;20446;-67
2021/12/24 03:56:50;;;;;;;11.68;8.13;;;8.90;73.80;;;;;;5052424;28;20048;-67
2021/12/24 03:59:16;;;;;;;14.65;8.80;;;8.90;73.80;;;;;;5052878;28;20025;-66
2021/12/24 04:01:42;;;;;;;14.70;9.20;;;8.90;73.70;;;;;;5052667;28;20064;-66
2021/12/24 04:04:08;;;;;;;13.85;8.98;;;8.90;73.60;;;;;;5051984;28;20025;-66
2021/12/24 04:06:34;;;;;;;13.18;8.45;;;8.90;73.70;;;;;;5052869;28;20033;-66
2021/12/24 04:09:03;;;;;;;13.63;9.02;;;9.00;73.70;;;;;;5034398;28;20082;-68
2021/12/24 04:11:28;;;;;;;15.60;9.20;;;9.00;73.70;;;;;;5052311;28;20029;-63
2021/12/24 04:13:54;;;;;;;13.65;8.75;;;9.00;73.70;;;;;;5051820;28;20436;-68
2021/12/24 04:16:20;;;;;;;13.82;9.32;;;9.00;73.60;;;;;;5034683;28;20044;-69
2021/12/24 04:27:10;;;;;;;13.23;8.77;;;9.00;73.80;;;;;;5051357;28;20207;-68
2021/12/24 04:29:37;;;;;;;13.75;8.57;;;9.10;73.70;;;;;;5051891;28;20045;-67
2021/12/24 04:32:13;;;;;;;13.07;8.15;;;9.10;73.60;;;;;;5051545;28;20091;-64
2021/12/24 04:34:43;;;;;;;11.50;7.90;;;9.20;73.50;;;;;;5052394;28;20021;-68
2021/12/24 05:01:52;;;;;;;16.00;10.15;;;9.30;73.80;;;;;;5050117;28;20087;-69
2021/12/24 05:04:25;;;;;;;13.90;10.82;;;9.30;74.90;;;;;;5017284;28;20079;-67
2021/12/24 05:06:57;;;;;;;17.02;11.05;;;9.30;75.90;;;;;;5051148;28;20105;-68
2021/12/24 05:09:25;;;;;;;16.98;10.23;;;9.20;76.30;;;;;;5051500;28;20033;-69
2021/12/24 05:11:51;;;;;;;16.38;10.35;;;9.20;76.70;;;;;;5033448;28;20028;-67
2021/12/24 05:14:16;;;;;;;15.20;9.90;;;9.20;77.10;;;;;;5050715;28;20025;-66
2021/12/24 05:16:49;;;;;;;14.88;9.80;;;9.20;77.10;;;;;;5033249;28;20530;-68
2021/12/24 05:21:48;;;;;;;15.68;10.07;;;9.30;77.00;;;;;;5050932;28;20083;-68
2021/12/24 05:24:23;;;;;;;14.98;9.45;;;9.30;76.70;;;;;;5050226;28;20115;-68
2021/12/24 05:26:53;;;;;;;15.05;9.48;;;9.40;76.40;;;;;;5050828;28;20033;-65
2021/12/24 05:29:19;;;;;;;12.75;8.63;;;9.50;76.00;;;;;;5050716;28;20032;-68
2021/12/24 05:31:46;;;;;;;13.80;9.45;;;9.50;75.60;;;;;;5033413;28;20040;-69
2021/12/24 05:34:14;;;;;;;17.90;9.68;;;9.50;75.40;;;;;;5050163;28;20029;-67
2021/12/24 05:36:41;;;;;;;16.35;9.65;;;9.50;75.20;;;;;;5050435;28;20033;-67
2021/12/24 05:39:07;;;;;;;12.68;9.00;;;9.60;75.00;;;;;;5032661;28;20036;-68
2021/12/24 05:41:32;;;;;;;13.90;9.05;;;9.60;75.00;;;;;;5051036;28;20033;-68
2021/12/24 05:43:59;;;;;;;15.20;9.45;;;9.70;74.60;;;;;;5050402;28;20108;-70
2021/12/24 05:46:26;;;;;;;13.05;7.88;;;9.70;74.30;;;;;;5050831;28;20032;-67
2021/12/24 05:48:52;;;;;;;10.85;8.00;;;9.80;74.20;;;;;;5050924;28;20024;-67
2021/12/24 05:51:17;;;;;;;12.23;7.90;;;9.80;74.10;;;;;;5032297;28;20033;-69
2021/12/24 05:53:43;;;;;;;12.65;7.93;;;9.90;73.90;;;;;;5050350;28;20028;-69
2021/12/24 05:56:09;;;;;;;12.30;7.65;;;10.00;73.80;;;;;;5049907;28;20086;-67
2021/12/24 05:58:35;;;;;;;11.07;7.53;;;10.00;73.50;;;;;;5050546;28;20447;-72
2021/12/24 06:01:01;;;;;;;10.70;7.25;;;10.00;73.20;;;;;;5032731;28;20029;-68
2021/12/24 06:03:26;;;;;;;13.93;8.02;;;10.10;73.10;;;;;;5052021;28;20424;-71
2021/12/24 06:05:52;;;;;;;11.63;7.35;;;10.20;72.80;;;;;;5036509;28;20044;-68
2021/12/24 06:08:18;;;;;;;10.00;7.20;;;10.20;72.60;;;;;;5036252;28;20292;-67
2021/12/24 06:10:44;;;;;;;13.57;6.85;;;10.20;72.40;;;;;;5036509;28;20371;-63
2021/12/24 06:13:09;;;;;;;11.82;7.32;;;10.20;72.50;;;;;;5036182;28;20029;-69
2021/12/24 06:15:44;;;;;;;12.57;7.10;;;10.30;72.40;;;;;;5036473;28;20027;-67
2021/12/24 06:18:19;;;;;;;13.55;6.82;;;10.30;72.10;;;;;;5053891;28;20057;-68
2021/12/24 06:20:44;;;;;;;10.77;7.13;;;10.30;72.00;;;;;;5054557;28;20025;-69
2021/12/24 06:23:10;;;;;;;8.98;6.50;;;10.40;72.00;;;;;;5054608;28;20029;-68
2021/12/24 06:25:37;;;;;;;9.85;6.70;;;10.40;71.80;;;;;;5036610;28;20025;-64
2021/12/24 06:28:03;;;;;;;10.93;6.75;;;10.50;71.90;;;;;;5054128;28;20516;-66
2021/12/24 06:30:29;;;;;;;10.55;6.45;;;10.50;71.70;;;;;;5054727;28;20111;-63
2021/12/24 06:33:00;;;;;;;9.07;5.97;;;10.50;71.40;;;;;;5036545;28;20032;-67
2021/12/24 06:35:27;;;;;;;11.73;6.10;;;10.60;71.30;;;;;;5054638;28;20029;-67
2021/12/24 06:37:54;;;;;;;8.48;5.90;;;10.60;71.40;;;;;;5036606;28;20037;-69
2021/12/24 06:40:20;;;;;;;9.23;5.90;;;10.60;71.30;;;;;;5035939;28;20079;-69
2021/12/24 06:42:46;;;;;;;9.98;6.28;;;10.70;71.30;;;;;;5036209;28;20519;-67
2021/12/24 06:45:11;;;;;;;9.82;6.40;;;10.70;71.10;;;;;;5035990;28;20025;-65
2021/12/24 06:47:37;;;;;;;9.98;5.80;;;10.70;71.00;;;;;;5036236;28;20029;-63
2021/12/24 06:50:04;;;;;;;9.23;5.28;;;10.70;71.20;;;;;;5054001;28;20036;-68
2021/12/24 06:52:30;;;;;;;8.32;5.50;;;10.80;71.20;;;;;;5053836;28;20021;-68
2021/12/24 06:54:56;;;;;;;9.35;5.63;;;10.80;71.40;;;;;;5054173;28;20420;-69
2021/12/24 06:57:24;;;;;;;10.25;5.53;;;10.80;71.40;;;;;;5053289;28;20554;-71
2021/12/24 06:59:50;;;;;;;10.10;5.72;;;10.80;71.30;;;;;;5036359;28;20044;-66
2021/12/24 07:02:15;;;;;;;9.88;5.53;;;10.90;71.30;;;;;;5053599;28;20021;-71
2021/12/24 07:04:41;;;;;;;10.73;5.22;;;10.90;71.20;;;;;;5053788;28;20025;-70
2021/12/24 07:07:07;;;;;;;10.73;5.40;;;10.90;71.10;;;;;;5035485;28;20370;-71
2021/12/24 07:09:33;;;;;;;10.40;4.85;;;10.90;71.10;;;;;;5036009;28;20510;-71
2021/12/24 07:11:59;;;;;;;8.05;5.40;;;11.00;70.90;;;;;;5053743;28;20429;-66
2021/12/24 07:14:24;;;;;;;8.20;4.78;;;11.00;71.00;;;;;;5052299;28;20021;-71
2021/12/24 07:16:51;;;;;;;7.80;4.32;;;11.00;71.00;;;;;;5053469;28;20409;-66
2021/12/24 07:19:16;;;;;;;8.98;5.10;;;11.10;71.00;;;;;;5053413;28;20037;-69
2021/12/24 07:21:42;;;;;;;7.97;4.47;;;11.10;70.80;;;;;;5053019;28;20539;-69
2021/12/24 07:24:09;;;;;;;6.82;3.90;;;11.20;70.70;;;;;;5052883;28;20036;-68
2021/12/24 07:26:35;;;;;;;7.03;4.32;;;11.20;70.70;;;;;;5053415;28;20029;-66
2021/12/24 07:29:01;;;;;;;5.43;3.83;;;11.20;70.80;;;;;;5053162;28;20085;-69
2021/12/24 07:31:26;;;;;;;7.03;4.00;;;11.30;71.40;;;;;;5053013;28;20029;-66
2021/12/24 07:33:52;;;;;;;8.50;3.85;;;11.30;70.90;;;;;;5053187;28;20025;-66
2021/12/24 07:36:18;;;;;;;10.15;3.42;;;11.40;71.00;;;;;;5053062;28;20036;-70
2021/12/24 07:38:44;;;;;;;6.15;3.15;;;11.50;71.00;;;;;;5035334;28;20040;-73
2021/12/24 07:41:10;;;;;;;8.73;3.33;;;11.60;70.80;;;;;;5053046;28;20106;-71
2021/12/24 07:43:35;;;;;;;6.57;3.10;;;11.60;70.70;;;;;;5035159;28;20029;-69
2021/12/24 07:46:01;;;;;;;6.22;3.28;;;11.70;70.60;;;;;;5053107;28;20033;-64
2021/12/24 07:48:28;;;;;;;6.53;3.47;;;11.70;70.50;;;;;;5052437;28;20057;-75
2021/12/24 07:53:23;;;;;;;6.47;3.83;;;11.90;70.20;;;;;;5052449;28;20413;-70
2021/12/24 07:55:53;;;;;;;6.20;3.33;;;11.90;70.20;;;;;;5052915;28;20057;-74
2021/12/24 07:58:19;;;;;;;6.63;3.22;;;11.90;70.00;;;;;;5035019;28;20061;-75
2021/12/24 08:00:47;;;;;;;5.70;2.90;;;12.00;69.80;;;;;;5034929;28;20054;-76
2021/12/24 08:03:15;;;;;;;6.63;3.22;;;12.00;69.80;;;;;;5052252;28;20496;-71
2021/12/24 08:05:45;;;;;;;7.00;3.03;;;12.10;69.80;;;;;;5052647;28;20025;-67
2021/12/24 08:08:12;;;;;;;9.05;3.25;;;12.10;69.60;;;;;;5052368;28;20465;-75
2021/12/24 08:10:57;;;;;;;6.97;3.15;;;12.10;69.50;;;;;;5052498;28;20055;-69
2021/12/24 08:13:23;;;;;;;7.07;3.00;;;12.20;69.40;;;;;;5034093;28;20102;-66
2021/12/24 08:15:53;;;;;;;7.22;3.40;;;12.20;69.40;;;;;;5034797;28;20112;-69
2021/12/24 08:18:19;;;;;;;6.78;3.00;;;12.10;69.40;;;;;;5051871;28;20032;-68
2021/12/24 08:20:45;;;;;;;5.18;2.67;;;12.10;69.60;;;;;;5052435;28;20029;-71
2021/12/24 08:23:12;;;;;;;4.68;2.80;;;12.10;69.80;;;;;;5052072;28;20152;-66
2021/12/24 08:25:38;;;;;;;5.68;3.00;;;12.10;70.50;;;;;;5052080;28;20033;-67
2021/12/24 08:28:22;;;;;;;6.60;3.15;;;12.10;70.70;;;;;;5051784;28;20053;-72
2021/12/24 08:30:48;;;;;;;6.28;2.95;;;12.00;72.40;;;;;;5034755;28;20155;-68
2021/12/24 08:33:15;;;;;;;7.57;3.50;;;12.00;72.30;;;;;;5034138;28;20469;-70
2021/12/24 08:35:41;;;;;;;7.38;3.20;;;12.00;72.50;;;;;;5051575;28;20025;-68
2021/12/24 08:38:07;;;;;;;6.65;3.15;;;12.00;72.50;;;;;;5051989;28;20036;-68
2021/12/24 08:40:33;;;;;;;7.22;2.92;;;12.10;72.50;;;;;;5051020;28;20033;-70
2021/12/24 08:43:00;;;;;;;5.95;2.95;;;12.10;72.10;;;;;;5052140;28;20100;-71
2021/12/24 08:45:26;;;;;;;4.88;2.65;;;12.10;72.00;;;;;;5051239;28;20116;-69
2021/12/24 08:47:51;;;;;;;5.03;2.67;;;12.10;71.90;;;;;;5051792;28;20028;-70
2021/12/24 08:50:18;;;;;;;6.38;2.88;;;12.10;71.10;;;;;;5033487;28;20116;-75
2021/12/24 08:52:46;;;;;;;9.00;2.92;;;12.10;71.10;;;;;;5051603;28;20458;-70
2021/12/24 08:55:16;;;;;;;5.72;3.33;;;12.20;70.90;;;;;;5051320;28;20024;-73
2021/12/24 08:57:42;;;;;;;6.28;4.00;;;12.20;70.60;;;;;;5051724;28;20029;-70
2021/12/24 09:00:11;;;;;;;8.00;3.17;;;12.20;70.40;;;;;;5051869;28;20028;-71
2021/12/24 09:02:38;;;;;;;4.85;2.65;;;12.20;70.20;;;;;;5033302;28;20032;-69
2021/12/24 09:05:06;;;;;;;5.32;2.65;;;12.30;70.00;;;;;;5034026;28;20047;-66
2021/12/24 09:07:33;;;;;;;6.07;2.90;;;12.20;69.70;;;;;;5033540;28;20317;-68
2021/12/24 09:09:59;;;;;;;5.43;2.72;;;12.30;69.70;;;;;;5052074;28;20021;-69
2021/12/24 09:12:25;;;;;;;6.22;2.47;;;12.30;69.50;;;;;;5016872;28;20025;-70
2021/12/24 09:14:53;;;;;;;3.97;2.40;;;12.30;69.00;;;;;;5052034;28;20013;-68
2021/12/24 09:17:20;;;;;;;3.78;2.60;;;12.30;68.80;;;;;;5051152;28;20178;-69
2021/12/24 09:19:49;;;;;;;5.75;2.33;;;12.40;68.40;;;;;;5034042;28;20417;-67
2021/12/24 09:22:18;;;;;;;6.03;2.70;;;12.40;68.30;;;;;;5051138;28;20021;-69
2021/12/24 09:24:45;;;;;;;6.13;2.88;;;12.50;68.00;;;;;;5033957;28;20424;-68
2021/12/24 09:27:11;;;;;;;6.75;2.53;;;12.50;67.80;;;;;;5051561;28;20045;-68
2021/12/24 09:29:37;;;;;;;5.20;2.50;;;12.60;67.40;;;;;;5033253;28;20021;-71
2021/12/24 09:32:03;;;;;;;5.78;2.05;;;12.60;67.30;;;;;;5016879;28;20051;-67
2021/12/24 09:34:29;;;;;;;6.65;2.45;;;12.60;67.00;;;;;;5051440;28;20096;-69
2021/12/24 09:36:55;;;;;;;5.72;2.85;;;12.70;67.00;;;;;;5033535;28;20021;-71
2021/12/24 09:39:21;;;;;;;5.00;2.33;;;12.80;66.70;;;;;;5054203;28;20410;-70
2021/12/24 09:41:47;;;;;;;5.20;2.40;;;12.80;66.40;;;;;;5055228;28;20055;-67
2021/12/24 09:44:14;;;;;;;8.75;2.38;;;12.80;66.50;;;;;;5054217;28;20060;-66
2021/12/24 09:46:43;;;;;;;4.10;2.38;;;12.80;66.10;;;;;;5053512;28;20489;-69
2021/12/24 09:49:11;;;;;;;5.32;2.25;;;12.80;66.10;;;;;;5036879;28;20024;-68
2021/12/24 09:51:41;;;;;;;5.95;2.60;;;12.90;66.20;;;;;;5036524;28;20021;-69
2021/12/24 09:54:13;;;;;;;4.78;2.60;;;12.90;65.90;;;;;;5036478;28;20032;-65
2021/12/24 09:56:40;;;;;;;3.63;2.50;;;13.00;65.80;;;;;;5054008;28;20031;-72
2021/12/24 09:59:07;;;;;;;4.47;2.20;;;13.00;65.60;;;;;;5055105;28;20033;-72
2021/12/24 10:01:55;;;;;;;5.00;1.88;;;13.00;65.60;;;;;;5054244;28;20036;-68
2021/12/24 10:04:24;;;;;;;5.28;2.45;;;13.10;65.20;;;;;;5054714;28;20021;-76
2021/12/24 10:07:35;;;;;;;4.88;2.38;;;13.10;65.20;;;;;;5054897;28;20033;-76
2021/12/24 10:10:06;;;;;;;3.80;2.17;;;13.10;65.20;;;;;;5036596;28;20474;-70
2021/12/24 10:12:34;;;;;;;6.15;2.42;;;13.10;65.20;;;;;;5054145;28;20347;-73
2021/12/24 10:15:01;;;;;;;5.53;2.50;;;13.10;65.30;;;;;;5036689;28;20032;-71
2021/12/24 10:17:33;;;;;;;5.32;2.75;;;13.20;65.40;;;;;;5054214;28;20029;-68
2021/12/24 10:20:09;;;;;;;6.38;2.50;;;13.20;65.00;;;;;;5054329;28;20488;-70
2021/12/24 10:22:54;;;;;;;5.63;3.00;;;13.10;65.10;;;;;;5054035;28;20021;-75
2021/12/24 10:25:29;;;;;;;4.57;2.50;;;13.20;65.10;;;;;;5034822;28;20025;-75
2021/12/24 10:27:57;;;;;;;4.75;2.20;;;13.20;65.10;;;;;;5053795;28;20045;-77
2021/12/24 10:30:29;;;;;;;6.43;2.53;;;13.20;64.80;;;;;;5035456;28;20029;-71
2021/12/24 10:32:57;;;;;;;4.83;2.27;;;13.20;64.90;;;;;;5035020;28;20024;-70
2021/12/24 10:35:30;;;;;;;4.38;2.30;;;13.10;64.90;;;;;;5051837;28;20029;-72
2021/12/24 10:38:22;;;;;;;4.93;2.60;;;13.20;64.90;;;;;;5052874;28;20041;-71
2021/12/24 10:40:58;;;;;;;4.40;2.35;;;13.30;64.60;;;;;;5053104;28;20037;-69
2021/12/24 10:43:35;;;;;;;6.13;2.88;;;13.30;64.70;;;;;;5034442;28;20063;-73
2021/12/24 10:46:24;;;;;;;7.65;2.90;;;13.30;64.60;;;;;;5053515;28;20036;-70
2021/12/24 10:52:32;;;;;;;4.30;2.90;;;13.60;64.50;;;;;;4953114;29;20042;-68
2021/12/24 10:55:08;;;;;;;4.90;2.17;;;13.60;64.40;;;;;;4937186;29;20118;-69
2021/12/24 10:57:37;;;;;;;8.23;2.97;;;13.70;64.30;;;;;;4937114;29;20031;-70
2021/12/24 11:00:17;;;;;;;4.78;2.63;;;13.70;64.10;;;;;;4953559;28;20054;-71
2021/12/24 11:02:43;;;;;;;7.05;2.40;;;13.80;63.80;;;;;;4937189;29;20031;-68
2021/12/24 11:05:29;;;;;;;5.25;2.70;;;13.80;63.50;;;;;;4937568;29;20144;-71
2021/12/24 11:07:58;;;;;;;6.05;2.80;;;13.70;63.70;;;;;;4953355;28;20192;-71
2021/12/24 11:10:27;;;;;;;7.28;2.78;;;13.70;63.90;;;;;;4952629;28;20388;-69
2021/12/24 11:12:57;;;;;;;4.97;2.38;;;13.70;64.10;;;;;;4953407;28;20151;-66
2021/12/24 11:15:27;;;;;;;5.35;2.78;;;13.70;64.10;;;;;;4953344;29;20031;-73
2021/12/24 11:17:56;;;;;;;4.95;3.10;;;13.60;64.20;;;;;;4952530;28;20089;-69
2021/12/24 11:20:23;;;;;;;7.78;2.80;;;13.60;64.40;;;;;;4952671;29;20043;-72
2021/12/24 11:22:56;;;;;;;6.97;3.30;;;13.60;64.50;;;;;;4951224;28;20110;-70
2021/12/24 11:25:24;;;;;;;4.68;2.83;;;13.60;64.80;;;;;;4980853;28;20159;-73
2021/12/24 11:27:50;;;;;;;5.57;2.75;;;13.60;65.10;;;;;;5051011;28;20482;-74
2021/12/24 11:30:18;;;;;;;6.45;2.97;;;13.60;65.20;;;;;;5033837;28;20025;-70
2021/12/24 11:32:45;;;;;;;6.65;3.13;;;13.60;65.00;;;;;;5052224;28;20025;-70
2021/12/24 11:35:14;;;;;;;7.97;3.75;;;13.70;64.80;;;;;;5034576;28;20029;-70
2021/12/24 11:37:46;;;;;;;6.75;3.20;;;13.60;64.80;;;;;;5034089;28;20061;-68
2021/12/24 11:40:17;;;;;;;7.15;3.25;;;13.60;64.80;;;;;;5052676;28;20111;-72
2021/12/24 11:43:05;;;;;;;4.60;2.90;;;13.70;64.60;;;;;;5034281;28;20056;-72
2021/12/24 11:45:33;;;;;;;4.57;3.03;;;13.80;64.20;;;;;;5052060;28;20418;-71
2021/12/24 11:48:00;;;;;;;8.18;3.10;;;13.60;64.10;;;;;;5035000;28;20470;-75
2021/12/24 11:50:27;;;;;;;5.47;2.70;;;13.50;64.40;;;;;;5052484;28;20040;-71
2021/12/24 11:52:57;;;;;;;4.88;3.20;;;13.40;64.40;;;;;;5052209;28;20043;-71
2021/12/24 11:55:25;;;;;;;6.38;3.28;;;13.30;64.80;;;;;;5052133;28;20098;-73
2021/12/24 11:57:55;;;;;;;4.60;3.10;;;13.30;64.90;;;;;;5052315;28;20029;-70
2021/12/24 12:00:25;;;;;;;6.88;3.42;;;13.30;65.00;;;;;;5052610;28;20013;-68
2021/12/24 12:02:51;;;;;;;7.22;3.17;;;13.30;65.10;;;;;;5052136;28;20027;-70
2021/12/24 12:05:24;;;;;;;6.70;3.10;;;13.20;65.20;;;;;;5034427;28;20116;-68
2021/12/24 12:08:12;;;;;;;7.00;2.55;;;13.20;65.20;;;;;;5052541;28;20028;-73
2021/12/24 12:10:59;;;;;;;12.23;3.05;;;13.20;65.20;;;;;;5051577;28;20059;-68
2021/12/24 12:13:39;;;;;;;4.93;2.85;;;13.10;65.20;;;;;;5033839;28;20036;-65
2021/12/24 12:16:08;;;;;;;7.35;2.70;;;13.20;65.10;;;;;;5052173;28;20029;-68
2021/12/24 12:18:49;;;;;;;5.55;2.80;;;13.20;65.00;;;;;;5051737;28;20021;-73
2021/12/24 12:21:24;;;;;;;4.55;2.88;;;13.20;65.00;;;;;;5034082;28;20107;-69
2021/12/24 12:26:48;;;;;;;6.53;2.78;;;13.20;65.20;;;;;;5051115;28;20036;-66
2021/12/24 12:29:42;;;;;;;6.13;2.65;;;13.10;65.10;;;;;;5051716;28;20045;-65
2021/12/24 12:32:17;;;;;;;6.57;2.35;;;13.00;65.00;;;;;;5051594;28;20071;-66
2021/12/24 12:37:30;;;;;;;;;;;13.00;65.00;;;;;;5051409;28;20103;-66
2021/12/24 12:40:25;;;;;;;4.85;2.40;;;13.00;65.00;;;;;;5051706;28;19970;-67
2021/12/24 12:42:56;;;;;;;4.95;2.83;;;13.10;64.80;;;;;;5040816;28;20117;-67
2021/12/24 12:45:46;;;;;;;5.72;2.90;;;13.00;64.80;;;;;;5051780;28;20078;-71
2021/12/24 12:48:23;;;;;;;5.30;2.60;;;13.00;65.40;;;;;;5050980;28;20069;-70
2021/12/24 12:50:57;;;;;;;6.10;3.08;;;12.90;66.00;;;;;;5051003;28;20025;-68
2021/12/24 12:53:25;;;;;;;6.40;3.17;;;12.90;66.60;;;;;;5051336;28;20052;-71
2021/12/24 12:56:10;;;;;;;4.95;2.65;;;13.00;66.00;;;;;;5049681;28;20083;-67
2021/12/24 12:58:37;;;;;;;7.53;3.08;;;13.00;65.90;;;;;;5050871;28;20033;-68
2021/12/24 13:01:17;;;;;;;4.50;2.47;;;13.00;65.90;;;;;;5051267;28;20074;-68
2021/12/24 13:03:55;;;;;;;6.50;2.72;;;13.00;65.70;;;;;;5051563;28;20040;-69
2021/12/24 13:06:22;;;;;;;4.60;2.38;;;12.80;65.50;;;;;;5052135;28;20177;-66
2021/12/24 13:08:49;;;;;;;5.53;2.83;;;12.90;65.60;;;;;;5050804;28;20092;-67
2021/12/24 13:11:21;;;;;;;5.60;2.75;;;12.90;65.60;;;;;;5051502;28;20083;-68
2021/12/24 13:13:56;;;;;;;6.80;3.20;;;12.90;65.50;;;;;;5030673;28;20025;-67
2021/12/24 13:16:32;;;;;;;5.35;2.72;;;12.90;65.20;;;;;;5033613;28;20036;-69
2021/12/24 13:24:40;;;;;;;;;;;13.00;64.50;;;;;;5051858;28;20056;-68
2021/12/24 13:27:05;;;;;;;5.45;2.85;;;13.00;64.20;;;;;;5051414;28;19909;-72
2021/12/24 13:29:31;;;;;;;6.13;2.90;;;13.00;64.40;;;;;;5033460;28;20363;-71
2021/12/24 13:31:57;;;;;;;4.47;2.75;;;13.00;64.40;;;;;;5033490;28;20039;-73
2021/12/24 13:34:25;;;;;;;4.53;2.50;;;13.00;64.30;;;;;;5033334;28;20435;-72
2021/12/24 13:36:51;;;;;;;5.43;2.38;;;13.10;64.50;;;;;;5050854;28;20029;-72
2021/12/24 13:39:20;;;;;;;6.00;3.00;;;13.00;64.50;;;;;;5033708;28;20029;-73
2021/12/24 13:41:47;;;;;;;6.05;3.00;;;13.00;64.50;;;;;;5050694;28;20143;-73
2021/12/24 13:44:22;;;;;;;5.50;2.80;;;13.00;64.40;;;;;;5033513;28;20147;-72
2021/12/24 13:47:14;;;;;;;5.32;2.80;;;13.00;64.60;;;;;;5032976;28;20033;-73
2021/12/24 13:55:35;;;;;;;9.45;2.78;;;12.90;65.40;;;;;;5050706;28;20078;-72
2021/12/24 13:58:04;;;;;;;7.13;2.85;;;12.80;65.90;;;;;;5049731;28;20032;-73
2021/12/24 14:00:33;;;;;;;5.53;2.97;;;12.80;66.10;;;;;;5049877;28;20381;-73
2021/12/24 14:03:07;;;;;;;4.53;2.63;;;12.80;66.00;;;;;;5050162;28;20071;-73
2021/12/24 14:05:42;;;;;;;4.30;2.70;;;12.80;66.10;;;;;;5050290;28;20096;-72
2021/12/24 14:08:13;;;;;;;5.72;2.70;;;12.90;66.30;;;;;;5050158;28;20056;-73
2021/12/24 14:10:41;;;;;;;6.40;2.80;;;12.80;66.60;;;;;;5050007;28;20031;-72
2021/12/24 14:13:19;;;;;;;10.07;2.67;;;12.70;67.00;;;;;;5032525;28;20025;-72
2021/12/24 14:24:12;;;;;;;4.65;2.63;;;12.60;68.60;;;;;;5050699;28;20578;-72
2021/12/24 14:26:39;;;;;;;4.95;2.50;;;12.60;69.10;;;;;;5053711;28;20032;-71
2021/12/24 14:29:07;;;;;;;4.60;2.63;;;12.50;68.90;;;;;;5054333;28;20072;-70
2021/12/24 14:31:53;;;;;;;6.03;3.38;;;12.60;69.00;;;;;;5035789;28;20029;-72
2021/12/24 14:34:45;;;;;;;6.63;3.65;;;12.50;69.20;;;;;;5054084;28;20071;-70
2021/12/24 14:37:33;;;;;;;5.93;2.75;;;12.40;69.80;;;;;;5036147;28;20119;-61
2021/12/24 14:40:14;;;;;;;5.13;2.95;;;12.40;70.10;;;;;;5036318;28;20106;-75
2021/12/24 14:42:45;;;;;;;5.13;2.90;;;12.30;70.40;;;;;;5053446;28;20036;-72
2021/12/24 14:45:14;;;;;;;5.90;2.72;;;12.30;70.40;;;;;;5054009;28;20091;-72
2021/12/24 14:47:40;;;;;;;6.40;3.72;;;12.30;70.50;;;;;;5053044;28;20535;-70
2021/12/24 14:50:12;;;;;;;6.13;3.28;;;12.30;70.70;;;;;;5052804;28;20502;-71
2021/12/24 14:52:38;;;;;;;5.57;3.30;;;12.20;70.70;;;;;;5035241;28;20029;-71
2021/12/24 14:55:22;;;;;;;4.55;3.17;;;12.20;70.80;;;;;;5053281;28;20058;-71
2021/12/24 14:57:58;;;;;;;5.07;2.70;;;12.20;71.00;;;;;;5052219;28;20029;-72
2021/12/24 15:00:35;;;;;;;5.00;2.67;;;12.20;71.00;;;;;;5052884;28;20037;-71
2021/12/24 15:03:11;;;;;;;4.55;3.00;;;12.20;71.10;;;;;;5052633;28;20052;-69